createdAt,value
2022-11-30T00:00:20.171Z,6.03
2022-11-30T00:02:46.892Z,5.99
2022-11-30T00:05:13.440Z,6.50
2022-11-30T00:07:39.894Z,6.31
2022-11-30T00:10:07.739Z,6.24
2022-11-30T00:12:34.157Z,5.75
2022-11-30T00:15:02.053Z,5.98
2022-11-30T00:17:28.443Z,6.06
2022-11-30T00:19:54.858Z,6.03
2022-11-30T00:22:21.531Z,5.99
2022-11-30T00:24:48.119Z,6.14
2022-11-30T00:27:14.669Z,5.88
2022-11-30T00:29:41.051Z,6.05
2022-11-30T00:32:08.778Z,5.77
2022-11-30T00:34:35.506Z,6.00
2022-11-30T00:37:01.941Z,6.13
2022-11-30T00:39:33.890Z,5.74
2022-11-30T00:42:01.889Z,5.56
2022-11-30T00:44:28.291Z,5.90
2022-11-30T00:46:54.707Z,5.79
2022-11-30T00:49:22.531Z,5.78
2022-11-30T00:51:49.209Z,6.01
2022-11-30T00:54:15.613Z,5.77
2022-11-30T00:56:42.042Z,6.04
2022-11-30T00:59:08.499Z,5.91
2022-11-30T01:01:34.932Z,5.94
2022-11-30T01:04:01.836Z,5.79
2022-11-30T01:06:29.695Z,5.86
2022-11-30T01:08:56.284Z,5.98
2022-11-30T01:11:25.315Z,6.19
2022-11-30T01:13:51.876Z,5.76
2022-11-30T01:16:20.938Z,5.97
2022-11-30T01:18:48.611Z,6.07
2022-11-30T01:21:21.665Z,6.29
2022-11-30T01:23:50.253Z,6.09
2022-11-30T01:26:17.622Z,5.83
2022-11-30T01:28:44.590Z,5.53
2022-11-30T01:31:13.559Z,5.63
2022-11-30T01:33:40.850Z,5.90
2022-11-30T01:36:10.398Z,5.95
2022-11-30T01:38:38.804Z,5.84
2022-11-30T01:44:54.398Z,5.80
2022-11-30T01:47:25.311Z,5.93
2022-11-30T01:49:55.655Z,5.79
2022-11-30T01:52:26.127Z,5.92
2022-11-30T01:54:56.450Z,5.69
2022-11-30T01:57:29.619Z,5.86
2022-11-30T02:00:00.872Z,5.92
2022-11-30T02:02:37.521Z,5.93
2022-11-30T02:05:04.789Z,5.69
2022-11-30T02:07:31.300Z,5.78
2022-11-30T02:09:57.802Z,5.98
2022-11-30T02:12:31.618Z,5.97
2022-11-30T02:15:04.422Z,5.92
2022-11-30T02:17:40.539Z,5.97
2022-11-30T02:20:42.075Z,5.68
2022-11-30T02:23:40.971Z,6.10
2022-11-30T02:26:22.664Z,5.87
2022-11-30T02:29:03.791Z,5.49
2022-11-30T02:31:38.286Z,5.81
2022-11-30T02:34:08.477Z,5.84
2022-11-30T02:36:36.105Z,5.99
2022-11-30T02:39:03.854Z,5.74
2022-11-30T02:41:38.201Z,5.71
2022-11-30T02:44:10.172Z,5.80
2022-11-30T02:46:53.856Z,5.59
2022-11-30T02:49:27.015Z,5.70
2022-11-30T02:51:55.143Z,5.68
2022-11-30T02:54:21.587Z,5.72
2022-11-30T02:56:47.997Z,5.72
2022-11-30T02:59:15.858Z,5.86
2022-11-30T03:01:42.371Z,5.98
2022-11-30T03:04:08.954Z,5.86
2022-11-30T03:06:35.402Z,5.75
2022-11-30T03:09:01.992Z,5.80
2022-11-30T03:11:28.409Z,5.82
2022-11-30T03:13:55.194Z,5.94
2022-11-30T03:16:22.978Z,5.91
2022-11-30T03:18:49.415Z,5.81
2022-11-30T03:21:15.957Z,5.94
2022-11-30T03:23:42.383Z,5.79
2022-11-30T03:26:09.204Z,5.82
2022-11-30T03:28:36.423Z,5.61
2022-11-30T03:31:03.142Z,5.72
2022-11-30T03:33:30.979Z,5.94
2022-11-30T03:36:01.498Z,5.79
2022-11-30T03:38:28.324Z,5.77
2022-11-30T03:41:00.754Z,5.82
2022-11-30T03:43:27.384Z,6.00
2022-11-30T03:45:53.927Z,5.73
2022-11-30T03:48:20.515Z,5.64
2022-11-30T03:50:48.383Z,6.10
2022-11-30T03:53:14.849Z,6.13
2022-11-30T03:55:41.252Z,5.86
2022-11-30T03:58:07.670Z,6.06
2022-11-30T04:00:34.125Z,6.16
2022-11-30T04:03:00.646Z,5.86
2022-11-30T04:05:27.080Z,6.24
2022-11-30T04:07:55.065Z,5.95
2022-11-30T04:10:21.549Z,5.82
2022-11-30T04:12:47.966Z,6.16
2022-11-30T04:15:14.492Z,6.01
2022-11-30T04:17:40.921Z,5.88
2022-11-30T04:20:08.167Z,6.05
2022-11-30T04:22:34.589Z,5.70
2022-11-30T04:25:02.631Z,5.81
2022-11-30T04:27:29.381Z,5.71
2022-11-30T04:29:56.038Z,6.11
2022-11-30T04:32:22.697Z,6.20
2022-11-30T04:34:49.449Z,5.86
2022-11-30T04:37:16.059Z,5.88
2022-11-30T04:39:42.518Z,5.94
2022-11-30T04:42:10.274Z,5.78
2022-11-30T04:44:36.695Z,5.79
2022-11-30T04:47:03.261Z,6.03
2022-11-30T04:49:29.703Z,5.69
2022-11-30T04:51:56.121Z,5.89
2022-11-30T04:54:22.533Z,5.64
2022-11-30T04:56:48.964Z,5.62
2022-11-30T04:59:16.703Z,5.76
2022-11-30T05:01:43.202Z,5.48
2022-11-30T05:04:09.779Z,6.09
2022-11-30T05:06:36.297Z,5.67
2022-11-30T05:09:02.767Z,5.49
2022-11-30T05:11:29.189Z,5.80
2022-11-30T05:13:55.582Z,5.56
2022-11-30T05:16:23.407Z,5.78
2022-11-30T05:18:49.858Z,5.82
2022-11-30T05:21:16.300Z,5.57
2022-11-30T05:23:42.685Z,5.91
2022-11-30T05:26:09.160Z,5.84
2022-11-30T05:28:36.257Z,5.76
2022-11-30T05:31:04.302Z,6.00
2022-11-30T05:33:32.496Z,5.87
2022-11-30T05:35:58.998Z,6.22
2022-11-30T05:38:25.444Z,5.61
2022-11-30T05:40:51.915Z,5.60
2022-11-30T05:43:18.324Z,5.87
2022-11-30T05:45:44.765Z,6.00
2022-11-30T05:48:11.195Z,5.86
2022-11-30T05:50:38.937Z,5.85
2022-11-30T05:53:05.347Z,5.91
2022-11-30T05:55:31.930Z,5.47
2022-11-30T05:57:58.348Z,5.50
2022-11-30T06:00:25.294Z,5.47
2022-11-30T06:02:55.771Z,5.77
2022-11-30T06:05:22.229Z,5.88
2022-11-30T06:07:50.098Z,5.86
2022-11-30T06:10:17.031Z,5.98
2022-11-30T06:12:43.481Z,5.71
2022-11-30T06:15:10.994Z,5.75
2022-11-30T06:17:37.597Z,5.62
2022-11-30T06:20:04.520Z,5.64
2022-11-30T06:22:31.099Z,5.76
2022-11-30T06:24:58.930Z,5.56
2022-11-30T06:27:25.378Z,5.56
2022-11-30T06:29:51.798Z,5.76
2022-11-30T06:32:18.296Z,5.76
2022-11-30T06:34:44.865Z,5.80
2022-11-30T06:37:11.409Z,5.79
2022-11-30T06:40:04.882Z,5.87
2022-11-30T06:42:25.623Z,6.02
2022-11-30T06:44:52.105Z,5.92
2022-11-30T06:47:18.543Z,5.75
2022-11-30T06:49:45.108Z,5.82
2022-11-30T06:52:11.513Z,5.83
2022-11-30T06:54:38.008Z,6.13
2022-11-30T06:57:04.401Z,6.25
2022-11-30T06:59:32.181Z,5.82
2022-11-30T07:02:01.685Z,5.57
2022-11-30T07:04:33.282Z,5.74
2022-11-30T07:06:59.743Z,5.84
2022-11-30T07:09:26.286Z,6.14
2022-11-30T07:11:52.727Z,5.71
2022-11-30T07:14:19.292Z,5.91
2022-11-30T07:16:47.165Z,6.08
2022-11-30T07:19:13.597Z,5.93
2022-11-30T07:21:40.017Z,5.59
2022-11-30T07:24:06.945Z,5.97
2022-11-30T07:26:33.480Z,5.42
2022-11-30T07:28:59.943Z,5.61
2022-11-30T07:31:28.090Z,5.93
2022-11-30T07:33:56.970Z,5.91
2022-11-30T07:36:25.581Z,5.43
2022-11-30T07:38:52.444Z,5.87
2022-11-30T07:41:19.111Z,6.00
2022-11-30T07:43:45.552Z,5.30
2022-11-30T07:46:14.076Z,5.65
2022-11-30T07:48:41.371Z,5.66
2022-11-30T07:51:12.763Z,5.54
2022-11-30T07:53:39.302Z,5.71
2022-11-30T07:56:07.655Z,5.71
2022-11-30T07:58:34.301Z,5.50
2022-11-30T08:01:02.232Z,5.95
2022-11-30T08:03:32.377Z,5.61
2022-11-30T08:06:04.266Z,5.92
2022-11-30T08:08:33.774Z,5.53
2022-11-30T08:11:01.415Z,5.63
2022-11-30T08:13:28.381Z,5.91
2022-11-30T08:15:54.981Z,5.94
2022-11-30T08:18:21.451Z,5.94
2022-11-30T08:20:50.170Z,5.80
2022-11-30T08:23:16.726Z,5.58
2022-11-30T08:25:44.462Z,5.86
2022-11-30T08:28:10.865Z,5.62
2022-11-30T08:30:37.334Z,5.78
2022-11-30T08:33:04.012Z,5.58
2022-11-30T08:35:30.420Z,5.45
2022-11-30T08:37:56.908Z,5.56
2022-11-30T08:40:23.358Z,5.66
2022-11-30T08:42:51.205Z,6.05
2022-11-30T08:45:17.833Z,5.83
2022-11-30T08:47:44.313Z,6.13
2022-11-30T08:50:10.949Z,5.88
2022-11-30T08:52:37.397Z,6.32
2022-11-30T08:55:04.412Z,6.02
2022-11-30T08:57:30.819Z,5.87
2022-11-30T08:59:58.563Z,5.98
2022-11-30T09:02:26.528Z,6.07
2022-11-30T09:04:52.973Z,6.19
2022-11-30T09:07:19.724Z,5.90
2022-11-30T09:09:46.249Z,5.57
2022-11-30T09:12:12.722Z,5.85
2022-11-30T09:14:39.157Z,6.08
2022-11-30T09:17:06.910Z,6.07
2022-11-30T09:19:33.501Z,6.06
2022-11-30T09:21:59.961Z,6.14
2022-11-30T09:24:26.435Z,6.07
2022-11-30T09:26:55.511Z,5.84
2022-11-30T09:29:22.282Z,6.30
2022-11-30T09:31:48.733Z,5.95
2022-11-30T09:34:16.499Z,6.09
2022-11-30T09:36:42.922Z,6.12
2022-11-30T09:39:09.584Z,6.11
2022-11-30T09:41:57.755Z,6.13
2022-11-30T09:44:32.580Z,5.77
2022-11-30T09:47:07.363Z,6.01
2022-11-30T09:49:37.469Z,6.16
2022-11-30T09:52:09.662Z,6.22
2022-11-30T09:54:38.909Z,6.25
2022-11-30T09:57:21.096Z,6.26
2022-11-30T09:59:54.455Z,6.43
2022-11-30T10:02:30.243Z,6.49
2022-11-30T10:04:58.682Z,6.27
2022-11-30T10:07:44.183Z,6.43
2022-11-30T10:10:37.473Z,6.15
2022-11-30T10:13:14.051Z,6.77
2022-11-30T10:15:52.936Z,6.27
2022-11-30T10:18:29.973Z,6.51
2022-11-30T10:21:07.518Z,6.55
2022-11-30T10:23:48.802Z,6.78
2022-11-30T10:26:16.421Z,6.90
2022-11-30T10:28:49.879Z,7.02
2022-11-30T10:31:17.690Z,6.40
2022-11-30T10:33:47.165Z,6.30
2022-11-30T10:36:23.309Z,6.62
2022-11-30T10:38:52.613Z,6.57
2022-11-30T10:41:24.852Z,7.62
2022-11-30T10:43:56.482Z,6.87
2022-11-30T10:46:28.051Z,6.49
2022-11-30T10:48:58.345Z,6.95
2022-11-30T10:51:27.592Z,7.29
2022-11-30T10:53:54.115Z,6.90
2022-11-30T10:56:20.498Z,7.04
2022-11-30T10:58:53.503Z,6.64
2022-11-30T11:01:32.682Z,6.86
2022-11-30T11:04:14.029Z,6.59
2022-11-30T11:06:45.024Z,6.88
2022-11-30T11:09:35.058Z,6.53
2022-11-30T11:12:04.198Z,6.36
2022-11-30T11:14:34.988Z,6.95
2022-11-30T11:17:06.367Z,6.16
2022-11-30T11:19:36.149Z,6.28
2022-11-30T11:22:06.773Z,6.24
2022-11-30T11:24:34.087Z,6.80
2022-11-30T11:27:00.851Z,6.93
2022-11-30T11:29:30.868Z,6.96
2022-11-30T11:32:07.245Z,6.66
2022-11-30T11:34:35.403Z,6.27
2022-11-30T11:37:12.730Z,6.66
2022-11-30T11:39:39.401Z,6.54
2022-11-30T11:42:17.746Z,6.32
2022-11-30T11:44:50.593Z,6.75
2022-11-30T11:47:24.426Z,6.62
2022-11-30T11:49:50.833Z,6.49
2022-11-30T11:52:18.695Z,6.59
2022-11-30T11:54:49.241Z,6.46
2022-11-30T11:57:17.443Z,6.50
2022-11-30T11:59:49.510Z,6.60
2022-11-30T12:02:27.989Z,6.79
2022-11-30T12:04:58.991Z,6.82
2022-11-30T12:07:32.054Z,6.85
2022-11-30T12:13:15.239Z,6.82
2022-11-30T12:15:56.999Z,7.04
2022-11-30T12:18:28.541Z,6.71
2022-11-30T12:21:00.617Z,6.87
2022-11-30T12:23:52.419Z,6.94
2022-11-30T12:26:31.633Z,6.57
2022-11-30T12:29:16.149Z,6.66
2022-11-30T12:31:53.591Z,7.30
2022-11-30T12:34:30.473Z,6.94
2022-11-30T12:37:04.275Z,6.58
2022-11-30T12:39:35.143Z,6.45
2022-11-30T12:42:11.511Z,6.18
2022-11-30T12:44:47.442Z,6.37
2022-11-30T12:47:27.356Z,6.38
2022-11-30T12:50:07.604Z,6.16
2022-11-30T12:52:44.033Z,6.18
2022-11-30T12:55:24.759Z,6.23
2022-11-30T12:58:05.764Z,6.27
2022-11-30T13:00:45.352Z,6.55
2022-11-30T13:03:45.563Z,6.57
2022-11-30T13:06:15.961Z,6.13
2022-11-30T13:08:51.026Z,5.97
2022-11-30T13:11:23.379Z,6.04
2022-11-30T13:13:52.503Z,6.24
2022-11-30T13:16:20.466Z,6.45
2022-11-30T13:18:47.756Z,5.98
2022-11-30T13:21:21.487Z,6.27
2022-11-30T13:23:55.027Z,6.04
2022-11-30T13:26:29.195Z,6.11
2022-11-30T13:29:07.299Z,6.09
2022-11-30T13:31:39.534Z,5.99
2022-11-30T13:34:22.950Z,6.49
2022-11-30T13:36:49.586Z,6.91
2022-11-30T13:39:22.845Z,6.62
2022-11-30T13:42:10.019Z,6.59
2022-11-30T13:44:38.555Z,6.83
2022-11-30T13:47:15.490Z,6.58
2022-11-30T13:49:42.352Z,6.59
2022-11-30T13:52:22.778Z,6.62
2022-11-30T13:54:52.028Z,6.74
2022-11-30T13:57:59.092Z,6.31
2022-11-30T14:01:19.716Z,6.21
2022-11-30T14:04:36.741Z,6.41
2022-11-30T14:07:03.296Z,6.15
2022-11-30T14:09:56.404Z,6.58
2022-11-30T14:12:46.676Z,6.39
2022-11-30T14:15:49.699Z,6.31
2022-11-30T14:18:22.761Z,6.37
2022-11-30T14:20:54.106Z,6.35
2022-11-30T14:23:26.078Z,6.36
2022-11-30T14:25:55.711Z,6.40
2022-11-30T14:28:25.296Z,6.35
2022-11-30T14:30:54.792Z,6.80
2022-11-30T14:33:27.197Z,6.70
2022-11-30T14:35:56.457Z,6.24
2022-11-30T14:38:25.478Z,6.72
2022-11-30T14:40:53.704Z,6.41
2022-11-30T14:43:20.316Z,6.17
2022-11-30T14:46:01.598Z,6.87
2022-11-30T14:48:32.777Z,6.49
2022-11-30T14:51:01.900Z,6.47
2022-11-30T14:53:35.887Z,6.63
2022-11-30T14:56:08.977Z,6.51
2022-11-30T14:58:43.172Z,6.85
2022-11-30T15:01:17.113Z,6.20
2022-11-30T15:03:45.991Z,6.50
2022-11-30T15:06:15.703Z,6.10
2022-11-30T15:08:45.891Z,6.37
2022-11-30T15:11:14.562Z,6.58
2022-11-30T15:13:43.599Z,6.70
2022-11-30T15:16:18.642Z,6.16
2022-11-30T15:18:46.876Z,6.50
2022-11-30T15:21:16.874Z,5.94
2022-11-30T15:23:46.720Z,6.20
2022-11-30T15:26:20.567Z,5.82
2022-11-30T15:28:54.583Z,5.90
2022-11-30T15:31:21.372Z,6.19
2022-11-30T15:33:50.564Z,5.76
2022-11-30T15:36:32.427Z,5.80
2022-11-30T15:39:02.341Z,5.99
2022-11-30T15:41:28.820Z,6.19
2022-11-30T15:43:56.930Z,6.15
2022-11-30T15:46:35.072Z,6.07
2022-11-30T15:49:15.639Z,5.79
2022-11-30T15:51:44.008Z,6.05
2022-11-30T15:54:10.634Z,5.91
2022-11-30T15:56:37.101Z,6.28
2022-11-30T15:59:06.447Z,6.62
2022-11-30T16:01:51.252Z,6.09
2022-11-30T16:04:19.068Z,5.94
2022-11-30T16:06:47.503Z,6.27
2022-11-30T16:09:19.510Z,5.85
2022-11-30T16:11:46.936Z,5.96
2022-11-30T16:14:15.363Z,6.11
2022-11-30T16:16:42.109Z,6.18
2022-11-30T16:19:09.243Z,6.18
2022-11-30T16:21:37.788Z,6.25
2022-11-30T16:24:04.942Z,5.86
2022-11-30T16:29:17.817Z,6.05
2022-11-30T16:31:44.247Z,6.02
2022-11-30T16:34:11.349Z,6.50
2022-11-30T16:36:39.290Z,6.04
2022-11-30T16:39:06.020Z,6.02
2022-11-30T16:41:34.614Z,5.98
2022-11-30T16:44:01.061Z,5.76
2022-11-30T16:46:28.868Z,5.79
2022-11-30T16:48:55.928Z,6.57
2022-11-30T16:51:26.223Z,6.86
2022-11-30T16:53:54.718Z,6.34
2022-11-30T16:56:21.389Z,6.29
2022-11-30T16:58:47.997Z,5.92
2022-11-30T17:01:18.850Z,6.49
2022-11-30T17:03:48.443Z,6.88
2022-11-30T17:06:17.919Z,6.21
2022-11-30T17:08:44.480Z,6.80
2022-11-30T17:11:16.988Z,6.69
2022-11-30T17:13:43.421Z,6.80
2022-11-30T17:16:10.323Z,6.57
2022-11-30T17:18:36.758Z,7.20
2022-11-30T17:21:03.330Z,7.32
2022-11-30T17:23:29.742Z,7.28
2022-11-30T17:25:56.511Z,6.42
2022-11-30T17:28:24.535Z,6.98
2022-11-30T17:30:51.083Z,6.42
2022-11-30T17:33:17.531Z,6.52
2022-11-30T17:35:43.975Z,6.29
2022-11-30T17:38:10.423Z,6.00
2022-11-30T17:40:39.205Z,6.24
2022-11-30T17:43:05.595Z,6.33
2022-11-30T17:45:33.462Z,6.86
2022-11-30T17:47:59.942Z,6.79
2022-11-30T17:50:26.467Z,6.57
2022-11-30T17:52:52.865Z,6.82
2022-11-30T17:55:19.258Z,6.83
2022-11-30T17:57:45.653Z,6.18
2022-11-30T18:00:12.936Z,6.41
2022-11-30T18:02:40.741Z,6.76
2022-11-30T18:05:07.950Z,6.44
2022-11-30T18:07:34.538Z,5.90
2022-11-30T18:10:01.016Z,5.72
2022-11-30T18:12:27.490Z,5.56
2022-11-30T18:14:53.973Z,5.61
2022-11-30T18:17:20.400Z,5.76
2022-11-30T18:19:48.219Z,5.77
2022-11-30T18:22:14.624Z,5.71
2022-11-30T18:24:41.052Z,5.68
2022-11-30T18:27:07.458Z,5.47
2022-11-30T18:29:33.902Z,5.80
2022-11-30T18:32:00.530Z,6.10
2022-11-30T18:34:27.139Z,6.25
2022-11-30T18:36:54.995Z,5.95
2022-11-30T18:39:21.447Z,6.09
2022-11-30T18:41:47.936Z,6.06
2022-11-30T18:44:14.427Z,6.07
2022-11-30T18:46:41.004Z,5.98
2022-11-30T18:49:07.542Z,5.93
2022-11-30T18:51:35.205Z,6.25
2022-11-30T18:54:05.103Z,6.19
2022-11-30T18:56:33.125Z,6.07
2022-11-30T18:59:01.559Z,5.90
2022-11-30T19:01:28.655Z,5.82
2022-11-30T19:03:56.973Z,5.49
2022-11-30T19:06:24.587Z,5.61
2022-11-30T19:08:51.297Z,5.54
2022-11-30T19:11:19.066Z,5.61
2022-11-30T19:13:45.711Z,5.48
2022-11-30T19:16:14.583Z,5.75
2022-11-30T19:18:41.128Z,5.58
2022-11-30T19:21:08.866Z,5.56
2022-11-30T19:23:35.863Z,5.61
2022-11-30T19:26:02.311Z,5.72
2022-11-30T19:28:31.512Z,6.03
2022-11-30T19:30:58.573Z,5.85
2022-11-30T19:33:25.471Z,5.89
2022-11-30T19:35:51.972Z,6.01
2022-11-30T19:38:18.500Z,6.07
2022-11-30T19:40:44.911Z,6.27
2022-11-30T19:43:11.368Z,6.20
2022-11-30T19:45:39.364Z,6.27
2022-11-30T19:48:05.926Z,6.09
2022-11-30T19:50:32.498Z,6.32
2022-11-30T19:52:58.939Z,5.92
2022-11-30T19:55:25.537Z,6.20
2022-11-30T19:57:51.970Z,6.34
2022-11-30T20:00:19.625Z,6.43
2022-11-30T20:02:47.427Z,5.83
2022-11-30T20:05:13.921Z,5.61
2022-11-30T20:07:40.392Z,5.55
2022-11-30T20:10:07.827Z,5.44
2022-11-30T20:12:34.247Z,5.73
2022-11-30T20:15:00.683Z,5.79
2022-11-30T20:17:27.097Z,5.78
2022-11-30T20:19:54.845Z,5.98
2022-11-30T20:22:21.238Z,6.07
2022-11-30T20:24:47.849Z,5.74
2022-11-30T20:27:14.618Z,5.68
2022-11-30T20:29:41.030Z,5.93
2022-11-30T20:32:07.456Z,6.05
2022-11-30T20:34:38.617Z,5.81
2022-11-30T20:37:08.783Z,6.11
2022-11-30T20:39:35.231Z,6.10
2022-11-30T20:42:01.608Z,6.38
2022-11-30T20:44:28.034Z,5.99
2022-11-30T20:46:54.477Z,5.73
2022-11-30T20:49:20.939Z,5.74
2022-11-30T20:51:48.012Z,5.44
2022-11-30T20:54:16.447Z,5.80
2022-11-30T20:56:43.183Z,5.44
2022-11-30T20:59:15.281Z,5.62
2022-11-30T21:01:43.986Z,5.77
2022-11-30T21:04:11.090Z,5.37
2022-11-30T21:06:37.501Z,5.31
2022-11-30T21:09:04.695Z,5.50
2022-11-30T21:11:32.465Z,5.74
2022-11-30T21:13:59.144Z,5.44
2022-11-30T21:16:28.603Z,5.35
2022-11-30T21:18:56.739Z,5.66
2022-11-30T21:21:27.169Z,5.66
2022-11-30T21:23:53.832Z,5.39
2022-11-30T21:26:21.993Z,5.40
2022-11-30T21:28:51.493Z,5.21
2022-11-30T21:31:17.953Z,5.31
2022-11-30T21:33:50.956Z,5.43
2022-11-30T21:36:19.407Z,5.64
2022-11-30T21:38:45.825Z,5.53
2022-11-30T21:41:14.136Z,5.85
2022-11-30T21:43:41.425Z,5.80
2022-11-30T21:46:12.547Z,5.59
2022-11-30T21:48:41.089Z,5.46
2022-11-30T21:51:09.770Z,5.38
2022-11-30T21:53:38.905Z,5.93
2022-11-30T21:56:07.707Z,5.36
2022-11-30T21:58:34.509Z,5.61
2022-11-30T22:01:02.605Z,5.63
2022-11-30T22:03:30.530Z,5.74
2022-11-30T22:05:58.401Z,5.81
2022-11-30T22:08:24.845Z,5.60
2022-11-30T22:10:51.270Z,5.25
2022-11-30T22:13:17.671Z,5.46
2022-11-30T22:15:44.111Z,5.62
2022-11-30T22:18:10.630Z,5.58
2022-11-30T22:20:38.395Z,5.65
2022-11-30T22:23:04.792Z,5.18
2022-11-30T22:25:31.229Z,5.52
2022-11-30T22:27:57.594Z,5.56
2022-11-30T22:30:24.006Z,5.66
2022-11-30T22:32:50.439Z,5.58
2022-11-30T22:35:16.833Z,5.71
2022-11-30T22:37:44.603Z,5.47
2022-11-30T22:40:12.226Z,5.44
2022-11-30T22:42:38.627Z,5.35
2022-11-30T22:45:06.686Z,5.40
2022-11-30T22:47:33.127Z,5.44
2022-11-30T22:49:59.563Z,5.42
2022-11-30T22:52:48.342Z,5.35
2022-11-30T22:55:13.986Z,5.42
2022-11-30T22:57:40.522Z,5.44
2022-11-30T23:00:08.491Z,5.09
2022-11-30T23:02:35.034Z,5.43
2022-11-30T23:05:01.510Z,5.37
2022-11-30T23:07:32.074Z,5.64
2022-11-30T23:09:58.794Z,5.43
2022-11-30T23:12:51.274Z,5.34
2022-11-30T23:15:13.311Z,5.51
2022-11-30T23:17:39.745Z,5.24
2022-11-30T23:20:07.418Z,5.58
2022-11-30T23:22:35.297Z,5.38
2022-11-30T23:25:01.758Z,5.31
2022-11-30T23:27:29.500Z,5.07
2022-11-30T23:29:56.110Z,5.45
2022-11-30T23:32:22.639Z,5.43
2022-11-30T23:34:50.757Z,5.32
2022-11-30T23:37:17.446Z,5.07
2022-11-30T23:39:43.843Z,5.59
2022-11-30T23:42:10.244Z,5.65
2022-11-30T23:44:38.017Z,5.61
2022-11-30T23:47:04.653Z,5.36
2022-11-30T23:49:31.223Z,5.49
2022-11-30T23:51:57.664Z,5.22
2022-11-30T23:54:24.166Z,5.00
2022-11-30T23:56:50.570Z,5.18
2022-11-30T23:59:17.044Z,5.49
